Terminal Aerodrome Forecast
Issued by NWS

Home | Current Version | Previous Version | Text Only | Print | Product List | Glossary On
Versions: 1 2 3 4 5 6 7 8 9 10 11 12
000
FTUS43 KSGF 251720
TAFBBG
TAF
KBBG 251720Z 2518/2618 24005KT P6SM SCT035
     FM252000 27005KT P6SM VCTS BKN200CB
     FM260000 33006KT P6SM VCSH BKN070
     FM261300 35005KT P6SM SCT150=

USA.gov is the U.S. government's official web portal to all federal, state and local government web resources and services.